Time;durP1;ratioP1;P1;durP2;ratioP2;P2;SDS_P1;SDS_P2;PMS_P1;PMS_P2;Temp;Humidity;BMP_temperature;BMP_pressure;BME280_temperature;BME280_humidity;BME280_pressure;Samples;Min_cycle;Max_cycle;Signal;HPM_P1;HPM_P2
2022/04/15 00:01:14;;;;;;;1.52;1.42;;;;;;;15.21;53.17;101808.00;5242114;28;20365;-80
2022/04/15 00:03:45;;;;;;;0.88;0.88;;;;;;;15.20;53.34;101813.34;5204581;28;20032;-80
2022/04/15 00:06:20;;;;;;;10.75;2.22;;;;;;;15.18;53.25;101815.16;5190954;28;20044;-80
2022/04/15 00:08:51;;;;;;;1.38;1.25;;;;;;;15.10;53.45;101813.59;5206014;28;20100;-80
2022/04/15 00:11:22;;;;;;;0.85;0.85;;;;;;;15.07;53.41;101813.72;5211607;28;20039;-80
2022/04/15 00:13:52;;;;;;;1.90;0.90;;;;;;;15.05;53.63;101814.63;5249203;28;20439;-81
2022/04/15 00:16:23;;;;;;;3.13;1.55;;;;;;;14.99;53.60;101810.41;5225297;28;20036;-80
2022/04/15 00:18:53;;;;;;;1.75;1.65;;;;;;;15.00;53.67;101812.13;5228040;28;20500;-81
2022/04/15 00:21:24;;;;;;;1.00;0.98;;;;;;;14.95;53.64;101804.34;5214816;28;20071;-80
2022/04/15 00:23:56;;;;;;;2.65;2.13;;;;;;;14.91;53.71;101797.41;5212426;28;20084;-80
2022/04/15 00:26:27;;;;;;;1.23;0.88;;;;;;;14.92;53.82;101808.84;5230498;28;20085;-80
2022/04/15 00:28:58;;;;;;;2.30;1.88;;;;;;;14.95;54.03;101806.13;5231980;28;20060;-80
2022/04/15 00:31:32;;;;;;;1.65;0.95;;;;;;;14.90;54.09;101808.88;5212373;28;20045;-80
2022/04/15 00:34:03;;;;;;;0.75;0.75;;;;;;;14.90;53.96;101808.88;5216180;28;20451;-80
2022/04/15 00:36:33;;;;;;;1.45;1.35;;;;;;;14.87;54.11;101803.72;5229898;28;20049;-80
2022/04/15 00:39:04;;;;;;;1.35;1.23;;;;;;;14.81;53.81;101808.28;5208686;28;20044;-81
2022/04/15 00:41:34;;;;;;;3.90;1.08;;;;;;;14.76;53.85;101806.63;5224696;28;20602;-80
2022/04/15 00:44:07;;;;;;;1.40;1.30;;;;;;;14.72;53.81;101809.38;5214560;28;20085;-80
2022/04/15 00:46:37;;;;;;;1.40;1.30;;;;;;;14.60;54.17;101807.91;5186477;28;20033;-80
2022/04/15 00:49:11;;;;;;;1.27;1.17;;;;;;;14.67;54.19;101812.16;5206015;28;20021;-80
2022/04/15 00:51:43;;;;;;;0.98;0.98;;;;;;;14.58;54.17;101809.75;5227541;28;20044;-80
2022/04/15 00:54:18;;;;;;;2.33;1.25;;;;;;;14.52;53.90;101815.16;5207787;28;20107;-80
2022/04/15 00:56:51;;;;;;;1.38;1.27;;;;;;;14.47;54.18;101817.91;5207010;28;20500;-80
2022/04/15 00:59:23;;;;;;;0.98;0.98;;;;;;;14.43;54.15;101816.28;5226597;28;20122;-80
2022/04/15 01:01:53;;;;;;;2.28;1.40;;;;;;;14.45;54.50;101817.97;5227638;28;20135;-80
2022/04/15 01:04:25;;;;;;;1.10;1.05;;;;;;;14.39;54.44;101820.78;5229407;28;20043;-80
2022/04/15 01:06:57;;;;;;;3.03;1.98;;;;;;;14.38;54.03;101829.59;5226500;28;20062;-81
2022/04/15 01:09:32;;;;;;;0.80;0.80;;;;;;;14.32;54.37;101829.75;5219622;28;20037;-80
2022/04/15 01:12:05;;;;;;;0.88;0.88;;;;;;;14.32;54.44;101830.63;5210946;28;20045;-80
2022/04/15 01:14:36;;;;;;;;;;;;;;;14.26;54.87;101840.44;5227630;28;20628;-80
2022/04/15 01:17:06;;;;;;;0.85;0.85;;;;;;;14.29;54.57;101841.28;5218371;28;20018;-80
2022/04/15 01:19:39;;;;;;;0.60;0.60;;;;;;;14.21;54.76;101843.22;5225669;28;20412;-80
2022/04/15 01:22:15;;;;;;;1.38;1.27;;;;;;;14.22;54.85;101839.66;5228400;28;20118;-80
2022/04/15 01:24:48;;;;;;;7.05;2.03;;;;;;;14.22;54.84;101839.66;5226611;28;20032;-81
2022/04/15 01:27:22;;;;;;;;;;;;;;;14.13;54.62;101840.78;5209905;28;20036;-81
2022/04/15 01:29:56;;;;;;;1.27;1.13;;;;;;;14.10;54.70;101846.09;5209006;28;19924;-80
2022/04/15 01:32:27;;;;;;;1.45;1.08;;;;;;;14.03;54.87;101844.53;5207261;28;20064;-80
2022/04/15 01:34:57;;;;;;;0.70;0.70;;;;;;;14.03;54.79;101839.25;5195622;28;20462;-80
2022/04/15 01:37:30;;;;;;;1.70;1.33;;;;;;;13.97;54.61;101842.03;5209501;28;20098;-80
2022/04/15 01:40:05;;;;;;;1.40;1.27;;;;;;;13.89;55.07;101836.06;5209003;28;20032;-80
2022/04/15 01:42:37;;;;;;;1.23;1.23;;;;;;;13.83;54.86;101843.22;5192550;28;20033;-80
2022/04/15 01:45:09;;;;;;;1.73;1.58;;;;;;;13.83;54.97;101840.59;5213352;28;20040;-81
2022/04/15 01:47:39;;;;;;;0.68;0.68;;;;;;;13.78;54.80;101845.09;5228204;28;20032;-81
2022/04/15 01:50:13;;;;;;;1.25;1.15;;;;;;;13.75;55.00;101849.56;5224376;28;20164;-81
2022/04/15 01:52:43;;;;;;;3.63;1.38;;;;;;;13.73;55.21;101844.34;5210078;28;20041;-81
2022/04/15 01:55:13;;;;;;;1.80;1.70;;;;;;;13.71;55.02;101854.03;5211829;28;20055;-81
2022/04/15 01:57:45;;;;;;;0.75;0.75;;;;;;;13.72;55.47;101844.38;5226450;28;20139;-81
2022/04/15 02:00:16;;;;;;;1.92;1.23;;;;;;;13.68;55.43;101852.34;5206414;28;20075;-81
2022/04/15 02:02:46;;;;;;;1.13;1.13;;;;;;;13.66;55.34;101850.66;5225948;28;20036;-81
2022/04/15 02:05:17;;;;;;;2.97;2.05;;;;;;;13.58;54.95;101853.44;5214396;28;20041;-81
2022/04/15 02:07:47;;;;;;;1.83;1.73;;;;;;;13.57;55.33;101856.13;5254733;22;20513;-79
2022/04/15 02:10:18;;;;;;;1.30;1.10;;;;;;;13.58;55.51;101856.09;5300886;27;20094;-79
2022/04/15 02:12:48;;;;;;;1.30;1.20;;;;;;;13.49;55.04;101862.44;5297885;27;20124;-79
2022/04/15 02:15:19;;;;;;;1.50;1.40;;;;;;;13.41;54.95;101856.44;5281092;27;20114;-79
2022/04/15 02:17:49;;;;;;;1.70;1.40;;;;;;;13.35;55.42;101857.41;5287261;27;20043;-79
2022/04/15 02:20:20;;;;;;;1.95;1.08;;;;;;;13.36;55.27;101863.53;5264201;28;20043;-79
2022/04/15 02:22:52;;;;;;;1.05;0.77;;;;;;;13.35;55.63;101864.44;5285742;27;20039;-79
2022/04/15 02:25:22;;;;;;;2.10;1.50;;;;;;;13.31;55.70;101868.03;5244902;27;20440;-79
2022/04/15 02:27:53;;;;;;;0.95;0.95;;;;;;;13.27;55.89;101869.88;5261927;28;20027;-79
2022/04/15 02:30:23;;;;;;;1.67;1.58;;;;;;;13.26;55.24;101862.88;5261454;27;20317;-79
2022/04/15 02:32:54;;;;;;;1.65;1.58;;;;;;;13.21;55.27;101870.84;5258786;28;20028;-79
2022/04/15 02:35:24;;;;;;;1.55;1.45;;;;;;;13.18;55.53;101865.63;5283416;27;20034;-79
2022/04/15 02:37:55;;;;;;;1.00;0.98;;;;;;;13.15;55.64;101870.09;5267748;28;20123;-79
2022/04/15 02:40:25;;;;;;;1.33;1.23;;;;;;;13.11;55.19;101868.44;5248996;28;20122;-79
2022/04/15 02:42:56;;;;;;;1.20;1.05;;;;;;;13.03;55.37;101872.09;5281438;27;20035;-79
2022/04/15 02:45:32;;;;;;;2.30;2.10;;;;;;;12.98;55.18;101878.34;5265912;27;20058;-79
2022/04/15 02:48:06;;;;;;;1.70;1.60;;;;;;;12.94;55.64;101874.00;5256680;28;20474;-79
2022/04/15 02:50:37;;;;;;;2.58;1.67;;;;;;;12.91;55.49;101875.81;5265763;28;20168;-80
2022/04/15 02:53:08;;;;;;;1.20;0.80;;;;;;;12.93;55.70;101875.78;5269477;28;20035;-78
2022/04/15 02:55:38;;;;;;;1.65;1.27;;;;;;;12.89;55.99;101880.25;5281967;28;20281;-79
2022/04/15 02:58:09;;;;;;;3.13;1.35;;;;;;;12.87;55.56;101879.41;5278019;27;20110;-79
2022/04/15 03:00:39;;;;;;;10.40;1.48;;;;;;;12.86;55.79;101880.28;5260930;28;20090;-79
2022/04/15 03:03:11;;;;;;;1.63;1.52;;;;;;;12.84;56.18;101871.56;5288331;28;20039;-79
2022/04/15 03:05:42;;;;;;;0.80;0.80;;;;;;;12.83;56.50;101885.63;5290228;28;20032;-79
2022/04/15 03:08:13;;;;;;;1.48;1.38;;;;;;;12.82;55.79;101883.00;5290258;28;20270;-79
2022/04/15 03:10:43;;;;;;;0.80;0.80;;;;;;;12.75;56.11;101879.63;5266737;28;20049;-80
2022/04/15 03:13:14;;;;;;;4.65;3.70;;;;;;;12.72;56.41;101877.94;5256764;28;20068;-79
2022/04/15 03:15:44;;;;;;;2.53;2.33;;;;;;;12.68;55.99;101880.63;5250903;28;20577;-79
2022/04/15 03:18:15;;;;;;;1.92;1.83;;;;;;;12.74;56.07;101875.25;5254128;28;20138;-79
2022/04/15 03:20:45;;;;;;;2.22;2.13;;;;;;;12.67;56.43;101884.16;5241968;27;20185;-79
2022/04/15 03:23:22;;;;;;;1.77;1.67;;;;;;;12.63;56.58;101882.47;5282802;28;20431;-79
2022/04/15 03:25:52;;;;;;;;;;;;;;;12.59;56.27;101882.53;5274242;28;20492;-79
2022/04/15 03:28:22;;;;;;;0.75;0.75;;;;;;;12.56;56.06;101877.31;5263236;28;20004;-79
2022/04/15 03:30:53;;;;;;;2.45;2.10;;;;;;;12.55;56.63;101879.97;5276728;28;20035;-79
2022/04/15 03:33:23;;;;;;;1.70;1.65;;;;;;;12.50;56.53;101882.69;5264705;28;20585;-79
2022/04/15 03:35:56;;;;;;;3.25;2.58;;;;;;;12.47;56.13;101885.34;5255295;28;20063;-79
2022/04/15 03:38:27;;;;;;;0.80;0.80;;;;;;;12.42;56.44;101879.31;5260424;28;20032;-79
2022/04/15 03:40:58;;;;;;;1.00;1.00;;;;;;;12.41;56.69;101872.31;5255131;28;20031;-79
2022/04/15 03:43:29;;;;;;;0.52;0.52;;;;;;;12.40;56.67;101878.47;5279056;28;20108;-79
2022/04/15 03:46:00;;;;;;;1.25;0.93;;;;;;;12.36;56.14;101887.28;5242049;28;20142;-79
2022/04/15 03:48:30;;;;;;;2.10;1.90;;;;;;;12.33;56.16;101879.47;5264927;28;20023;-79
2022/04/15 03:51:01;;;;;;;1.05;1.05;;;;;;;12.28;56.51;101883.00;5239945;28;20047;-79
2022/04/15 03:53:35;;;;;;;0.70;0.70;;;;;;;12.27;56.42;101880.41;5266641;28;20044;-79
2022/04/15 03:56:07;;;;;;;1.58;1.40;;;;;;;12.23;56.54;101884.00;5274862;27;20407;-79
2022/04/15 03:58:37;;;;;;;1.05;1.02;;;;;;;12.11;56.70;101883.28;5261887;27;20502;-79
2022/04/15 04:01:08;;;;;;;1.15;1.15;;;;;;;12.11;56.70;101878.03;5262336;27;20043;-79
2022/04/15 04:03:38;;;;;;;2.22;2.08;;;;;;;12.17;57.00;101884.97;5269132;27;20072;-79
2022/04/15 04:06:09;;;;;;;1.55;1.15;;;;;;;12.12;56.74;101884.13;5256193;27;20040;-79
2022/04/15 04:08:39;;;;;;;1.55;1.45;;;;;;;12.12;56.98;101878.88;5288843;27;20028;-79
2022/04/15 04:11:10;;;;;;;0.52;0.52;;;;;;;12.09;57.10;101887.69;5273998;27;20039;-79
2022/04/15 04:13:41;;;;;;;0.80;0.70;;;;;;;12.02;57.13;101879.94;5284482;28;20016;-80
2022/04/15 04:16:12;;;;;;;1.70;1.60;;;;;;;11.97;57.08;101877.38;5298681;27;20047;-79
2022/04/15 04:18:43;;;;;;;7.35;2.22;;;;;;;11.98;57.16;101881.75;5272818;27;20051;-79
2022/04/15 04:21:13;;;;;;;1.15;1.15;;;;;;;11.94;56.55;101887.88;5277085;27;20039;-79
2022/04/15 04:23:44;;;;;;;1.23;1.20;;;;;;;11.92;57.01;101885.28;5284282;27;20027;-79
2022/04/15 04:26:15;;;;;;;0.77;0.77;;;;;;;11.87;56.83;101894.97;5266795;28;20038;-79
2022/04/15 04:28:45;;;;;;;0.95;0.95;;;;;;;11.89;56.96;101893.22;5273834;27;20023;-79
2022/04/15 04:31:17;;;;;;;0.98;0.98;;;;;;;11.83;56.97;101890.66;5243617;28;20099;-79
2022/04/15 04:33:48;;;;;;;1.25;0.98;;;;;;;11.82;57.16;101896.81;5281956;27;20142;-79
2022/04/15 04:36:18;;;;;;;2.13;1.48;;;;;;;11.76;57.09;101900.38;5279325;27;20135;-79
2022/04/15 04:38:51;;;;;;;0.80;0.80;;;;;;;11.77;57.10;101898.66;5244486;28;20030;-79
2022/04/15 04:41:22;;;;;;;0.93;0.93;;;;;;;11.74;57.36;101903.94;5240730;28;20036;-79
2022/04/15 04:43:52;;;;;;;1.85;1.55;;;;;;;11.71;57.24;101901.34;5258646;27;20372;-77
2022/04/15 04:46:23;;;;;;;1.33;1.05;;;;;;;11.69;57.50;101905.75;5241452;28;20059;-77
2022/04/15 04:48:53;;;;;;;1.67;1.58;;;;;;;11.63;57.35;101904.06;5252507;27;20320;-77
2022/04/15 04:51:24;;;;;;;1.75;1.58;;;;;;;11.71;57.84;101915.38;5254621;28;20074;-76
2022/04/15 04:53:54;;;;;;;1.52;1.33;;;;;;;11.73;57.57;101915.34;5257514;28;20038;-77
2022/04/15 04:56:26;;;;;;;1.65;1.40;;;;;;;11.65;57.71;101920.72;5260663;27;20423;-77
2022/04/15 04:58:57;;;;;;;2.08;1.98;;;;;;;11.60;57.78;101925.13;5261055;27;20055;-77
2022/04/15 05:01:30;;;;;;;4.82;2.25;;;;;;;11.60;57.58;101930.38;5274074;28;20594;-77
2022/04/15 05:04:01;;;;;;;1.17;1.15;;;;;;;11.60;57.92;101940.91;5284693;27;20338;-76
2022/04/15 05:06:31;;;;;;;2.40;1.05;;;;;;;11.58;58.02;101937.41;5242636;28;20035;-77
2022/04/15 05:09:02;;;;;;;1.52;1.42;;;;;;;11.55;58.44;101943.59;5252433;27;20351;-76
2022/04/15 05:11:32;;;;;;;0.65;0.65;;;;;;;11.53;57.79;101940.09;5254267;28;20039;-76
2022/04/15 05:14:03;;;;;;;1.48;1.42;;;;;;;11.52;58.24;101951.53;5270183;27;20414;-75
2022/04/15 05:16:33;;;;;;;8.38;2.08;;;;;;;11.48;58.05;101953.31;5275258;28;20575;-77
2022/04/15 05:19:06;;;;;;;0.80;0.80;;;;;;;11.48;59.41;101955.94;5257565;28;20035;-78
2022/04/15 05:21:37;;;;;;;3.38;1.33;;;;;;;11.49;58.55;101959.44;5277163;27;20151;-77
2022/04/15 05:24:09;;;;;;;1.55;1.45;;;;;;;11.51;59.10;101962.91;5242694;27;20284;-76
2022/04/15 05:26:42;;;;;;;1.27;1.17;;;;;;;11.49;59.07;101964.69;5261543;27;20446;-78
2022/04/15 05:29:13;;;;;;;1.45;1.35;;;;;;;11.29;60.50;101963.13;5279412;27;20027;-75
2022/04/15 05:31:44;;;;;;;2.42;1.77;;;;;;;11.39;60.20;101974.44;5270813;28;20052;-76
2022/04/15 05:34:14;;;;;;;1.15;1.10;;;;;;;11.46;60.38;101976.09;5273866;27;20047;-76
2022/04/15 05:36:45;;;;;;;1.83;1.70;;;;;;;11.39;62.70;101981.44;5281014;27;20168;-77
2022/04/15 05:39:16;;;;;;;1.10;1.10;;;;;;;11.42;62.40;101992.78;5277363;27;20047;-77
2022/04/15 05:41:47;;;;;;;1.83;1.73;;;;;;;11.29;64.78;101985.91;5237099;28;20043;-77
2022/04/15 05:44:17;;;;;;;1.33;1.30;;;;;;;11.39;64.77;101994.56;5257149;28;20039;-75
2022/04/15 05:46:48;;;;;;;0.88;0.88;;;;;;;11.47;65.97;101991.00;5278194;27;20130;-76
2022/04/15 05:49:19;;;;;;;2.65;2.05;;;;;;;11.57;63.30;101991.75;5281009;27;20047;-77
2022/04/15 05:51:49;;;;;;;2.72;2.47;;;;;;;11.54;64.27;101997.03;5287690;27;20039;-75
2022/04/15 05:54:20;;;;;;;1.10;1.00;;;;;;;11.55;62.92;101998.78;5283275;27;20089;-77
2022/04/15 05:56:50;;;;;;;1.70;1.60;;;;;;;11.57;62.84;101996.16;5254055;27;20042;-76
2022/04/15 05:59:21;;;;;;;1.05;1.05;;;;;;;11.53;65.89;101997.91;5288117;27;20046;-77
2022/04/15 06:01:52;;;;;;;3.88;2.58;;;;;;;11.51;66.20;102010.22;5239794;28;20043;-77
2022/04/15 06:04:22;;;;;;;1.08;0.98;;;;;;;11.50;65.33;102011.13;5255950;28;20043;-77
2022/04/15 06:06:53;;;;;;;1.60;1.50;;;;;;;11.46;65.95;102017.28;5251191;28;20031;-76
2022/04/15 06:09:23;;;;;;;1.77;1.48;;;;;;;11.45;67.55;102016.41;5262654;28;20028;-76
2022/04/15 06:11:57;;;;;;;;;;;;;;;11.36;67.91;102020.91;5276061;28;20062;-75
2022/04/15 06:14:33;;;;;;;1.52;1.42;;;;;;;11.52;66.15;102027.75;5261519;27;19995;-77
2022/04/15 06:17:03;;;;;;;2.40;1.65;;;;;;;11.50;66.21;102029.50;5273458;28;20040;-77
2022/04/15 06:19:34;;;;;;;2.88;2.67;;;;;;;11.38;66.03;102034.88;5258429;28;20058;-78
2022/04/15 06:22:04;;;;;;;2.20;1.65;;;;;;;11.50;66.60;102040.03;5277647;28;20546;-78
2022/04/15 06:24:35;;;;;;;1.20;1.10;;;;;;;11.60;65.15;102041.69;5282150;27;20044;-78
2022/04/15 06:27:05;;;;;;;6.63;1.45;;;;;;;11.56;64.47;102041.72;5240722;28;20662;-77
2022/04/15 06:29:36;;;;;;;6.95;1.83;;;;;;;11.62;65.49;102046.91;5282288;27;20046;-79
2022/04/15 06:32:07;;;;;;;6.18;3.58;;;;;;;11.60;67.39;102046.06;5260017;28;20692;-78
2022/04/15 06:34:37;;;;;;;5.43;2.70;;;;;;;11.47;68.74;102055.81;5260137;28;20123;-78
2022/04/15 06:37:08;;;;;;;3.58;3.28;;;;;;;11.40;69.34;102064.66;5283377;27;20069;-77
2022/04/15 06:39:38;;;;;;;3.60;2.80;;;;;;;11.47;67.22;102069.84;5262087;28;20036;-76
2022/04/15 06:42:09;;;;;;;32.33;4.43;;;;;;;11.57;65.91;102068.00;5258744;28;20051;-76
2022/04/15 06:44:39;;;;;;;3.67;3.33;;;;;;;11.58;66.87;102067.09;5271978;27;20034;-77
2022/04/15 06:47:10;;;;;;;6.05;5.40;;;;;;;11.44;69.35;102076.88;5262818;28;20116;-79
2022/04/15 06:49:41;;;;;;;6.57;4.43;;;;;;;11.65;65.91;102073.19;5240589;28;20050;-77
2022/04/15 06:52:15;;;;;;;5.13;4.70;;;;;;;11.55;66.27;102077.63;5272839;28;20043;-78
2022/04/15 06:54:46;;;;;;;13.57;6.65;;;;;;;11.60;67.01;102078.50;5276700;28;20491;-79
2022/04/15 06:57:17;;;;;;;9.38;8.00;;;;;;;11.58;66.89;102082.88;5277363;28;20130;-77
2022/04/15 06:59:47;;;;;;;7.82;6.63;;;;;;;11.05;71.61;102084.19;5273323;28;20102;-78
2022/04/15 07:02:18;;;;;;;13.27;6.95;;;;;;;11.38;69.27;102083.06;5261334;28;20171;-75
2022/04/15 07:04:49;;;;;;;8.88;4.70;;;;;;;11.09;71.16;102096.44;5262816;28;20076;-75
2022/04/15 07:07:19;;;;;;;4.50;4.10;;;;;;;11.26;70.11;102093.66;5267391;28;20633;-76
2022/04/15 07:09:50;;;;;;;10.93;6.82;;;;;;;11.34;68.79;102091.84;5285518;28;20055;-76
2022/04/15 07:12:21;;;;;;;6.28;4.80;;;;;;;11.23;68.48;102098.97;5250311;28;20036;-75
2022/04/15 07:14:52;;;;;;;8.73;5.53;;;;;;;11.14;69.89;102103.41;5290857;28;20039;-75
2022/04/15 07:17:22;;;;;;;2.47;2.38;;;;;;;11.12;69.62;102101.63;5249702;28;20048;-76
2022/04/15 07:19:53;;;;;;;5.97;4.63;;;;;;;11.17;68.29;102110.38;5242955;28;20662;-76
2022/04/15 07:22:23;;;;;;;3.88;3.35;;;;;;;11.33;68.01;102116.38;5245626;28;20042;-78
2022/04/15 07:24:54;;;;;;;7.15;3.72;;;;;;;11.34;67.63;102105.88;5307218;27;20059;-76
2022/04/15 07:27:24;;;;;;;1.40;1.40;;;;;;;11.28;68.03;102111.16;5291690;22;20063;-89
2022/04/15 07:29:55;;;;;;;2.45;2.25;;;;;;;11.16;68.41;102124.38;5235711;28;20355;-89
2022/04/15 07:32:27;;;;;;;2.67;2.47;;;;;;;11.34;67.64;102121.63;5260087;28;20036;-88
2022/04/15 07:34:59;;;;;;;3.83;3.53;;;;;;;11.21;68.57;102127.84;5218667;28;20044;-90
2022/04/15 07:37:30;;;;;;;3.55;3.25;;;;;;;11.41;67.89;102134.72;5252502;28;20386;-89
2022/04/15 07:40:00;;;;;;;5.65;3.47;;;;;;;11.01;70.56;102136.75;5236088;28;20139;-89
2022/04/15 07:42:31;;;;;;;11.73;4.18;;;;;;;11.37;68.42;102136.50;5236131;28;20040;-89
2022/04/15 07:45:01;;;;;;;8.93;4.60;;;;;;;11.19;68.30;102132.25;5260959;28;20109;-88
2022/04/15 07:47:32;;;;;;;6.57;4.30;;;;;;;11.41;66.80;102135.56;5224015;28;20040;-89
2022/04/15 07:50:03;;;;;;;5.97;5.47;;;;;;;11.16;68.93;102135.75;5223899;28;20051;-88
2022/04/15 07:52:35;;;;;;;17.10;5.13;;;;;;;11.05;69.73;102134.97;5241685;28;20165;-88
2022/04/15 07:55:06;;;;;;;3.42;2.80;;;;;;;11.09;68.95;102133.19;5224517;28;20045;-88
2022/04/15 07:57:37;;;;;;;3.25;3.03;;;;;;;11.20;68.25;102131.34;5240457;28;20051;-88
2022/04/15 08:00:08;;;;;;;2.88;1.60;;;;;;;11.11;69.62;102137.56;5227705;28;20032;-92
2022/04/15 08:02:59;;;;;;;2.83;2.08;;;;;;;11.02;68.60;102130.63;5260199;28;20038;-93
2022/04/15 08:05:40;;;;;;;3.97;1.90;;;;;;;11.13;68.51;102145.41;5256961;28;20112;-91
2022/04/15 08:08:11;;;;;;;2.00;1.90;;;;;;;10.83;70.40;102144.72;5240304;28;20040;-93
2022/04/15 08:10:42;;;;;;;2.50;2.30;;;;;;;10.75;70.58;102149.16;5233483;28;20100;-91
2022/04/15 08:13:12;;;;;;;2.10;1.92;;;;;;;11.14;67.20;102152.41;5241179;28;20075;-92
2022/04/15 08:15:48;;;;;;;2.72;2.53;;;;;;;11.17;68.35;102153.28;5238817;28;20100;-92
2022/04/15 08:18:23;;;;;;;1.98;1.80;;;;;;;10.96;68.47;102154.28;5245919;28;20024;-93
2022/04/15 08:20:56;;;;;;;2.75;2.30;;;;;;;10.99;68.05;102154.28;5234935;28;20056;-91
2022/04/15 08:23:28;;;;;;;3.28;3.00;;;;;;;11.05;67.75;102153.38;5259057;28;20032;-94
2022/04/15 08:25:59;;;;;;;5.60;5.07;;;;;;;10.90;68.22;102149.06;5240172;28;20096;-91
2022/04/15 08:28:30;;;;;;;3.95;3.58;;;;;;;11.17;66.56;102152.41;5230070;28;20081;-92
2022/04/15 08:31:00;;;;;;;3.55;3.25;;;;;;;10.67;70.04;102152.69;5224528;27;20070;-93
2022/04/15 08:33:35;;;;;;;5.30;4.50;;;;;;;10.96;67.51;102153.41;5247205;27;20020;-91
2022/04/15 08:36:13;;;;;;;4.57;4.18;;;;;;;10.85;68.00;102163.97;5235102;28;20035;-93
2022/04/15 08:38:46;;;;;;;3.95;3.58;;;;;;;10.92;67.23;102152.56;5234635;28;20032;-93
2022/04/15 08:41:20;;;;;;;4.30;3.92;;;;;;;11.05;67.05;102161.25;5220049;28;20092;-92
2022/04/15 08:44:12;;;;;;;3.92;3.47;;;;;;;11.28;65.81;102161.06;5248145;28;20048;-89
2022/04/15 08:46:44;;;;;;;3.35;3.10;;;;;;;11.17;67.28;102168.19;5249638;28;20032;-90
2022/04/15 08:49:19;;;;;;;4.10;3.78;;;;;;;11.32;65.90;102168.06;5224261;28;20872;-90
2022/04/15 08:51:50;;;;;;;3.17;2.25;;;;;;;11.42;65.38;102173.25;5255550;28;20043;-91
2022/04/15 08:54:21;;;;;;;7.82;3.13;;;;;;;11.46;64.99;102180.22;5245117;28;20412;-87
2022/04/15 08:56:52;;;;;;;4.63;3.33;;;;;;;11.47;65.29;102169.72;5220840;28;20126;-89
2022/04/15 08:59:22;;;;;;;4.20;3.53;;;;;;;11.68;64.34;102175.66;5219291;28;20120;-90
2022/04/15 09:01:53;;;;;;;10.07;4.22;;;;;;;11.49;65.47;102172.31;5229503;28;20040;-85
2022/04/15 09:04:26;;;;;;;2.58;2.38;;;;;;;11.39;65.22;102174.16;5255737;27;20048;-87
2022/04/15 09:06:59;;;;;;;;;;;;;;;11.40;65.04;102181.16;5267503;27;20028;-87
2022/04/15 09:09:31;;;;;;;3.03;2.80;;;;;;;11.54;65.10;102182.81;5278066;27;19908;-88
2022/04/15 09:12:05;;;;;;;2.97;2.72;;;;;;;11.64;64.75;102182.72;5249674;27;20041;-86
2022/04/15 09:14:35;;;;;;;7.75;3.38;;;;;;;11.82;64.45;102179.03;5237886;28;20048;-87
2022/04/15 09:17:09;;;;;;;1.40;1.35;;;;;;;11.93;62.91;102191.25;5240258;28;20089;-86
2022/04/15 09:19:40;;;;;;;3.20;2.90;;;;;;;11.99;63.48;102185.09;5215540;28;20406;-87
2022/04/15 09:22:17;;;;;;;3.25;2.22;;;;;;;12.09;63.05;102192.88;5246896;28;20040;-87
2022/04/15 09:24:49;;;;;;;3.47;2.53;;;;;;;12.20;62.71;102190.13;5237873;28;20036;-87
2022/04/15 09:27:20;;;;;;;4.53;3.13;;;;;;;12.21;62.26;102197.13;5240767;28;20090;-89
2022/04/15 09:29:52;;;;;;;4.18;2.70;;;;;;;12.17;62.64;102190.19;5251474;28;20028;-87
2022/04/15 09:32:24;;;;;;;2.80;2.17;;;;;;;12.19;62.54;102198.91;5246724;28;20048;-86
2022/04/15 09:34:56;;;;;;;2.50;1.05;;;;;;;12.15;61.97;102197.19;5248187;28;20278;-85
2022/04/15 09:37:30;;;;;;;2.17;1.98;;;;;;;12.35;61.94;102204.03;5254539;28;20137;-86
2022/04/15 09:40:06;;;;;;;2.00;1.90;;;;;;;12.31;61.21;102191.78;5225980;28;20305;-87
2022/04/15 09:42:49;;;;;;;2.47;1.73;;;;;;;12.16;61.33;102200.69;5268246;28;20089;-85
2022/04/15 09:45:33;;;;;;;1.58;1.48;;;;;;;12.32;61.94;102201.41;5247510;28;20095;-89
2022/04/15 09:48:03;;;;;;;2.15;2.05;;;;;;;12.50;61.15;102193.31;5250154;28;20388;-85
2022/04/15 09:50:42;;;;;;;6.00;3.50;;;;;;;12.52;61.19;102188.03;5234089;28;20059;-88
2022/04/15 09:53:14;;;;;;;0.73;0.73;;;;;;;12.38;60.49;102198.72;5236277;28;20043;-88
2022/04/15 09:55:50;;;;;;;0.88;0.88;;;;;;;12.42;61.22;102196.03;5252928;28;20521;-87
2022/04/15 09:58:28;;;;;;;2.20;1.80;;;;;;;12.43;60.87;102199.56;5239709;28;20073;-91
2022/04/15 10:01:02;;;;;;;2.88;2.47;;;;;;;12.66;60.38;102195.78;5240628;28;20028;-91
2022/04/15 10:03:37;;;;;;;0.70;0.70;;;;;;;12.64;60.27;102192.28;5253119;28;20708;-90
2022/04/15 10:06:09;;;;;;;2.05;1.95;;;;;;;12.56;59.41;102187.97;5232898;28;20048;-88
2022/04/15 10:08:42;;;;;;;1.42;1.33;;;;;;;12.56;59.97;102182.72;5250091;28;20025;-89
2022/04/15 10:11:15;;;;;;;1.55;1.48;;;;;;;12.63;59.75;102187.91;5232922;28;20032;-88
2022/04/15 10:13:45;;;;;;;1.25;1.20;;;;;;;12.74;59.62;102193.91;5248055;28;20096;-88
2022/04/15 10:16:20;;;;;;;1.70;1.60;;;;;;;12.73;59.09;102184.28;5229079;28;20043;-90
2022/04/15 10:18:51;;;;;;;4.05;1.70;;;;;;;12.57;59.96;102184.47;5256641;28;20020;-87
2022/04/15 10:21:22;;;;;;;1.10;1.10;;;;;;;12.79;59.66;102188.59;5244723;28;20036;-87
2022/04/15 10:23:53;;;;;;;5.78;2.10;;;;;;;12.80;59.63;102191.19;5220179;28;20066;-83
2022/04/15 10:26:23;;;;;;;1.02;1.02;;;;;;;12.59;58.90;102187.06;5242138;28;20063;-86
2022/04/15 10:28:54;;;;;;;1.98;1.85;;;;;;;12.37;59.94;102183.81;5254815;28;20051;-85
2022/04/15 10:31:45;;;;;;;3.05;2.00;;;;;;;12.65;58.94;102183.50;5261095;28;20107;-89
2022/04/15 10:34:19;;;;;;;1.05;1.05;;;;;;;12.80;59.28;102187.69;5236926;28;20032;-86
2022/04/15 10:36:54;;;;;;;1.15;1.13;;;;;;;12.86;59.10;102187.63;5269169;28;20155;-88
2022/04/15 10:39:26;;;;;;;1.50;1.40;;;;;;;13.00;59.31;102190.06;5257921;28;20063;-86
2022/04/15 10:42:01;;;;;;;0.65;0.65;;;;;;;13.07;58.45;102197.00;5242394;28;20055;-86
2022/04/15 10:44:39;;;;;;;2.97;1.10;;;;;;;12.67;59.33;102194.88;5269125;28;20096;-86
2022/04/15 10:47:13;;;;;;;0.70;0.70;;;;;;;12.89;59.14;102188.44;5248129;28;20438;-86
2022/04/15 10:49:56;;;;;;;;;;;;;;;12.86;61.09;102193.75;5272252;27;20051;-86
2022/04/15 10:52:30;;;;;;;13.25;1.15;;;;;;;13.05;58.92;102180.31;5259756;28;19982;-85
2022/04/15 10:55:08;;;;;;;0.30;0.30;;;;;;;13.21;58.57;102181.84;5228232;28;20103;-86
2022/04/15 10:57:41;;;;;;;1.20;1.17;;;;;;;13.15;58.50;102174.03;5249269;28;20313;-84
2022/04/15 11:03:30;;;;;;;1.00;1.00;;;;;;;13.14;57.37;102189.88;5253174;28;20244;-87
2022/04/15 11:06:04;;;;;;;0.50;0.50;;;;;;;13.30;58.40;102186.13;5241629;28;20051;-86
2022/04/15 11:08:46;;;;;;;0.90;0.90;;;;;;;13.41;58.13;102183.34;5258764;28;20217;-87
2022/04/15 11:11:18;;;;;;;0.60;0.60;;;;;;;13.54;58.52;102181.41;5251732;28;20081;-86
2022/04/15 11:13:49;;;;;;;0.50;0.50;;;;;;;13.38;58.76;102180.72;5258522;28;20028;-87
2022/04/15 11:16:22;;;;;;;0.30;0.30;;;;;;;13.61;58.03;102180.41;5248162;28;20078;-86
2022/04/15 11:18:59;;;;;;;1.02;0.95;;;;;;;13.53;56.93;102183.16;5247589;28;20032;-87
2022/04/15 11:21:32;;;;;;;0.85;0.85;;;;;;;13.67;57.18;102185.56;5248566;28;20032;-88
2022/04/15 11:24:10;;;;;;;0.77;0.77;;;;;;;13.72;57.38;102182.84;5247928;28;20040;-87
2022/04/15 11:26:43;;;;;;;2.17;1.23;;;;;;;13.74;57.91;102182.81;5262438;28;20756;-87
2022/04/15 11:29:14;;;;;;;0.77;0.77;;;;;;;13.59;57.35;102191.88;5233962;28;20092;-87
2022/04/15 11:31:49;;;;;;;1.45;0.98;;;;;;;13.50;58.02;102188.50;5252865;28;20035;-87
2022/04/15 11:34:20;;;;;;;0.80;0.80;;;;;;;13.55;57.85;102191.06;5264496;28;20035;-87
2022/04/15 11:36:56;;;;;;;0.95;0.95;;;;;;;13.76;57.27;102184.53;5261777;28;20032;-86
2022/04/15 11:39:27;;;;;;;0.70;0.60;;;;;;;13.88;56.95;102179.94;5264871;28;20054;-88
2022/04/15 11:41:57;;;;;;;0.77;0.77;;;;;;;13.76;56.56;102187.16;5267806;28;20054;-88
2022/04/15 11:44:30;;;;;;;1.02;1.02;;;;;;;13.94;57.72;102179.81;5219142;28;20181;-88
2022/04/15 11:47:16;;;;;;;0.77;0.77;;;;;;;14.13;57.13;102188.31;5268237;28;20035;-86
2022/04/15 11:49:50;;;;;;;0.93;0.93;;;;;;;13.93;56.76;102180.72;5261470;28;20334;-87
2022/04/15 11:52:26;;;;;;;0.90;0.90;;;;;;;14.15;56.65;102186.47;5217591;28;20044;-86